Time;durP1;ratioP1;P1;durP2;ratioP2;P2;SDS_P1;SDS_P2;PMS_P1;PMS_P2;Temp;Humidity;BMP_temperature;BMP_pressure;BME280_temperature;BME280_humidity;BME280_pressure;Samples;Min_cycle;Max_cycle;Signal;HPM_P1;HPM_P2
2021/04/18 00:00:13;;;;;;;14.13;10.70;;;;;;;3.12;100.00;96262.88;1016405;29;20570;-62
2021/04/18 00:00:43;;;;;;;11.35;9.05;;;;;;;3.23;100.00;96258.56;1020319;29;20103;-62
2021/04/18 00:01:14;;;;;;;17.77;10.13;;;;;;;3.17;100.00;96259.84;1028267;28;20021;-62
2021/04/18 00:01:45;;;;;;;13.43;9.27;;;;;;;3.21;100.00;96263.91;1032155;28;20010;-61
2021/04/18 00:02:16;;;;;;;12.30;9.48;;;;;;;3.17;100.00;96262.47;1024291;29;20039;-62
2021/04/18 00:02:47;;;;;;;14.45;10.00;;;;;;;3.14;100.00;96262.75;1024245;29;20027;-62
2021/04/18 00:03:18;;;;;;;12.57;9.43;;;;;;;3.13;100.00;96261.06;1020234;29;20504;-61
2021/04/18 00:03:49;;;;;;;12.43;9.35;;;;;;;3.15;100.00;96256.53;1027893;28;20011;-62
2021/04/18 00:04:20;;;;;;;14.90;9.85;;;;;;;3.08;100.00;96253.56;1036475;28;20014;-61
2021/04/18 00:04:51;;;;;;;12.93;10.02;;;;;;;3.09;100.00;96257.84;1028277;28;20018;-62
2021/04/18 00:05:24;;;;;;;12.60;9.40;;;;;;;3.12;100.00;96252.38;1028336;28;20477;-62
2021/04/18 00:05:54;;;;;;;11.95;9.55;;;;;;;3.11;100.00;96253.31;1028160;28;20101;-62
2021/04/18 00:06:25;;;;;;;12.90;10.02;;;;;;;3.12;100.00;96254.16;1028209;28;20022;-62
2021/04/18 00:06:56;;;;;;;14.05;10.50;;;;;;;3.15;100.00;96256.53;1032330;28;20014;-62
2021/04/18 00:07:27;;;;;;;13.32;10.30;;;;;;;3.22;100.00;96244.56;1032310;28;20070;-62
2021/04/18 00:08:04;;;;;;;13.18;9.70;;;;;;;3.25;100.00;96249.59;1024166;29;20107;-63
2021/04/18 00:08:35;;;;;;;11.98;9.95;;;;;;;3.24;100.00;96261.06;1028276;28;20010;-61
2021/04/18 00:09:06;;;;;;;14.07;10.18;;;;;;;3.26;100.00;96245.16;1028249;28;20019;-62
2021/04/18 00:09:38;;;;;;;13.18;9.85;;;;;;;3.18;100.00;96257.09;1028249;28;20011;-63
2021/04/18 00:10:10;;;;;;;13.95;9.73;;;;;;;3.15;100.00;96246.03;1028234;28;20015;-62
2021/04/18 00:10:41;;;;;;;12.52;9.45;;;;;;;3.17;100.00;96247.59;1032348;28;20006;-62
2021/04/18 00:11:12;;;;;;;13.45;10.10;;;;;;;3.10;100.00;96243.78;1032232;28;20012;-62
2021/04/18 00:11:43;;;;;;;11.38;8.95;;;;;;;3.16;100.00;96237.22;1024256;29;20015;-62
2021/04/18 00:12:14;;;;;;;13.73;9.68;;;;;;;3.16;100.00;96238.03;1024109;29;20011;-63
2021/04/18 00:12:45;;;;;;;11.93;9.50;;;;;;;3.22;100.00;96252.44;1032378;28;20015;-61
2021/04/18 00:13:15;;;;;;;12.30;9.75;;;;;;;3.20;100.00;96249.13;1024247;29;20050;-62
2021/04/18 00:13:46;;;;;;;13.57;10.35;;;;;;;3.18;100.00;96241.38;1024072;29;20557;-62
2021/04/18 00:14:17;;;;;;;13.88;10.57;;;;;;;3.18;100.00;96245.78;1028115;28;20011;-62
2021/04/18 00:14:48;;;;;;;13.80;10.50;;;;;;;3.15;100.00;96241.63;1024153;29;20031;-62
2021/04/18 00:15:19;;;;;;;12.65;10.10;;;;;;;3.12;100.00;96244.50;1020375;29;20039;-62
2021/04/18 00:15:50;;;;;;;13.68;10.48;;;;;;;3.13;100.00;96240.06;1024237;29;20078;-62
2021/04/18 00:16:21;;;;;;;14.13;10.45;;;;;;;3.18;100.00;96241.38;1024057;29;20031;-61
2021/04/18 00:16:52;;;;;;;13.95;10.48;;;;;;;3.13;100.00;96242.69;1036275;28;20462;-62
2021/04/18 00:17:23;;;;;;;14.05;10.32;;;;;;;3.09;100.00;96244.72;1024201;29;20019;-61
2021/04/18 00:17:54;;;;;;;14.57;10.90;;;;;;;3.14;100.00;96250.44;1032287;28;20019;-61
2021/04/18 00:18:25;;;;;;;14.77;10.60;;;;;;;3.13;100.00;96242.69;1032158;28;20024;-62
2021/04/18 00:18:56;;;;;;;13.05;10.32;;;;;;;3.13;100.00;96238.28;1032422;28;20022;-61
2021/04/18 00:19:26;;;;;;;13.07;10.27;;;;;;;3.18;100.00;96240.53;1028220;28;20535;-62
2021/04/18 00:19:57;;;;;;;16.10;11.23;;;;;;;3.21;100.00;96245.56;1032209;28;20023;-61
2021/04/18 00:20:28;;;;;;;13.02;10.00;;;;;;;3.12;100.00;96241.88;1032064;28;20128;-62
2021/04/18 00:20:59;;;;;;;14.82;10.80;;;;;;;3.11;100.00;96240.19;1028172;28;20047;-62
2021/04/18 00:21:30;;;;;;;12.98;9.85;;;;;;;3.10;100.00;96242.94;1028204;28;20014;-62
2021/04/18 00:22:01;;;;;;;13.65;10.35;;;;;;;3.00;100.00;96232.34;1024296;29;20047;-62
2021/04/18 00:22:32;;;;;;;12.85;9.88;;;;;;;3.03;100.00;96245.25;1032039;28;20072;-61
2021/04/18 00:23:03;;;;;;;14.27;10.77;;;;;;;3.08;100.00;96248.31;1028251;28;20019;-62
2021/04/18 00:23:34;;;;;;;15.05;9.93;;;;;;;3.02;100.00;96238.31;1027977;28;20038;-63
2021/04/18 00:24:05;;;;;;;14.07;10.75;;;;;;;3.01;100.00;96239.25;1032162;28;20022;-63
2021/04/18 00:24:36;;;;;;;13.73;10.70;;;;;;;3.00;100.00;96237.59;1028185;28;20464;-62
2021/04/18 00:25:08;;;;;;;13.77;10.75;;;;;;;3.03;100.00;96242.63;1028284;28;20556;-62
2021/04/18 00:25:39;;;;;;;15.02;11.30;;;;;;;3.01;100.00;96239.25;1028657;28;20084;-62
2021/04/18 00:26:10;;;;;;;14.80;10.48;;;;;;;3.05;100.00;96240.69;1024080;28;20023;-62
2021/04/18 00:26:41;;;;;;;14.40;11.25;;;;;;;3.05;100.00;96240.69;1024056;29;20094;-62
2021/04/18 00:27:11;;;;;;;13.98;10.52;;;;;;;3.09;100.00;96242.13;1028129;28;20037;-62
2021/04/18 00:27:43;;;;;;;16.27;10.65;;;;;;;3.06;100.00;96233.66;1036248;28;20474;-62
2021/04/18 00:28:14;;;;;;;14.73;11.38;;;;;;;3.02;100.00;96235.69;1024113;29;20481;-62
2021/04/18 00:28:45;;;;;;;15.90;11.07;;;;;;;3.02;100.00;96240.94;1028092;28;20018;-63
2021/04/18 00:29:16;;;;;;;14.50;10.48;;;;;;;3.01;100.00;96237.50;1024171;29;20035;-62
2021/04/18 00:29:46;;;;;;;15.55;11.57;;;;;;;3.06;100.00;96236.28;1028128;28;20077;-61
2021/04/18 00:30:19;;;;;;;13.77;10.93;;;;;;;3.12;100.00;96244.50;1024175;29;20030;-63
2021/04/18 00:30:50;;;;;;;14.48;10.70;;;;;;;3.09;100.00;96231.63;1020182;29;20024;-62
2021/04/18 00:31:22;;;;;;;14.18;10.30;;;;;;;3.03;100.00;96242.63;1024113;29;20391;-61
2021/04/18 00:31:53;;;;;;;16.17;11.43;;;;;;;3.07;100.00;96236.16;1032160;28;20026;-61
2021/04/18 00:32:23;;;;;;;14.93;10.38;;;;;;;3.02;100.00;96238.31;1028146;28;20026;-62
2021/04/18 00:32:54;;;;;;;13.60;9.93;;;;;;;3.00;100.00;96232.34;1023985;28;20109;-62
2021/04/18 00:33:25;;;;;;;15.02;11.77;;;;;;;3.05;100.00;96235.44;1028046;28;20023;-62
2021/04/18 00:33:56;;;;;;;13.30;10.88;;;;;;;2.99;100.00;96236.75;1020055;29;20110;-62
2021/04/18 00:34:26;;;;;;;14.48;10.70;;;;;;;2.98;100.00;96232.47;1028042;28;20019;-62
2021/04/18 00:34:58;;;;;;;14.38;10.70;;;;;;;2.98;100.00;96234.28;1028054;28;20585;-62
2021/04/18 00:35:29;;;;;;;16.02;11.45;;;;;;;2.96;100.00;96228.28;1024088;29;20026;-62
2021/04/18 00:35:59;;;;;;;17.00;10.90;;;;;;;3.05;100.00;96237.22;1032133;28;20018;-62
2021/04/18 00:36:31;;;;;;;16.90;10.75;;;;;;;3.01;100.00;96234.00;1028071;28;20006;-62
2021/04/18 00:37:01;;;;;;;14.82;11.13;;;;;;;3.00;100.00;96232.34;1032081;28;20014;-61
2021/04/18 00:37:32;;;;;;;14.68;11.07;;;;;;;2.96;100.00;96231.78;1028019;28;20061;-62
2021/04/18 00:38:03;;;;;;;15.90;10.93;;;;;;;2.89;100.00;96234.97;1032246;28;20473;-62
2021/04/18 00:38:35;;;;;;;13.23;10.52;;;;;;;2.89;100.00;96232.34;1036129;28;20022;-63
2021/04/18 00:39:06;;;;;;;15.57;11.75;;;;;;;2.92;100.00;96232.13;1032129;28;20010;-62
2021/04/18 00:39:37;;;;;;;14.30;10.85;;;;;;;2.91;100.00;96233.94;1028015;28;20392;-62
2021/04/18 00:40:10;;;;;;;14.27;11.23;;;;;;;2.87;100.00;96232.47;1024099;28;20050;-62
2021/04/18 00:40:40;;;;;;;15.80;11.38;;;;;;;2.87;100.00;96227.22;1028102;28;20019;-62
2021/04/18 00:41:11;;;;;;;14.52;10.93;;;;;;;2.88;100.00;96235.97;1020148;29;20016;-62
2021/04/18 00:41:42;;;;;;;14.95;11.15;;;;;;;2.93;100.00;96232.00;1028001;28;20114;-62
2021/04/18 00:42:13;;;;;;;15.10;10.68;;;;;;;2.92;100.00;96232.13;1036215;28;20010;-62
2021/04/18 00:42:44;;;;;;;16.98;11.20;;;;;;;2.89;100.00;96232.34;1031976;28;20057;-62
2021/04/18 00:43:15;;;;;;;14.95;11.25;;;;;;;2.92;100.00;96234.75;1028117;28;20023;-62
2021/04/18 00:43:46;;;;;;;13.70;10.77;;;;;;;2.91;100.00;96228.69;1027836;28;20030;-62
2021/04/18 00:44:17;;;;;;;14.18;11.00;;;;;;;2.96;100.00;96236.16;1024146;29;20409;-62
2021/04/18 00:44:49;;;;;;;14.95;11.55;;;;;;;2.95;100.00;96234.50;1027933;28;20022;-62
2021/04/18 00:45:20;;;;;;;15.70;12.00;;;;;;;2.91;100.00;96228.69;1028163;28;20054;-63
2021/04/18 00:45:51;;;;;;;13.98;10.40;;;;;;;2.91;100.00;96231.31;1040131;28;20025;-63
2021/04/18 00:46:22;;;;;;;15.50;11.32;;;;;;;2.89;100.00;96230.59;1032107;28;20046;-62
2021/04/18 00:46:53;;;;;;;14.05;10.88;;;;;;;2.80;100.00;96223.44;1028018;28;20027;-62
2021/04/18 00:47:24;;;;;;;16.23;11.02;;;;;;;2.88;100.00;96233.34;1032098;28;20025;-62
2021/04/18 00:47:54;;;;;;;15.95;10.98;;;;;;;2.82;100.00;96234.63;1031921;28;20046;-62
2021/04/18 00:48:25;;;;;;;14.90;10.23;;;;;;;2.82;100.00;96232.88;1036128;28;20369;-61
2021/04/18 00:48:56;;;;;;;14.52;10.85;;;;;;;2.80;100.00;96232.16;1028054;28;20033;-62
2021/04/18 00:49:27;;;;;;;16.13;11.80;;;;;;;2.79;100.00;96229.66;1020105;29;20114;-62
2021/04/18 00:49:59;;;;;;;16.67;12.25;;;;;;;2.82;100.00;96230.25;1023999;29;20023;-63
2021/04/18 00:50:33;;;;;;;14.85;11.65;;;;;;;2.83;100.00;96228.44;1036077;28;20036;-61
2021/04/18 00:51:04;;;;;;;15.20;11.30;;;;;;;2.86;100.00;96229.97;1032191;28;20018;-61
2021/04/18 00:51:35;;;;;;;15.02;11.38;;;;;;;2.85;100.00;96230.94;1028037;28;20018;-62
2021/04/18 00:52:06;;;;;;;16.42;11.98;;;;;;;2.79;100.00;96232.28;1024013;29;20026;-62
2021/04/18 00:52:37;;;;;;;15.73;11.18;;;;;;;2.81;100.00;96225.94;1028073;28;20023;-62
2021/04/18 00:53:08;;;;;;;14.23;10.90;;;;;;;2.85;100.00;96223.91;1024063;29;20027;-62
2021/04/18 00:53:39;;;;;;;15.60;10.85;;;;;;;2.82;100.00;96229.38;1023540;28;20106;-61
2021/04/18 00:54:10;;;;;;;17.13;12.05;;;;;;;2.79;100.00;96227.03;1023708;28;20084;-61
2021/04/18 00:54:41;;;;;;;14.70;11.18;;;;;;;2.80;100.00;96229.53;1020022;29;20028;-62
2021/04/18 00:55:13;;;;;;;14.95;11.68;;;;;;;2.83;100.00;96226.66;1024065;29;20453;-62
2021/04/18 00:55:44;;;;;;;14.70;11.35;;;;;;;2.82;100.00;96235.47;1020089;29;20019;-62
2021/04/18 00:56:15;;;;;;;15.30;11.75;;;;;;;2.82;100.00;96226.75;1019929;29;20040;-62
2021/04/18 00:56:46;;;;;;;16.67;12.05;;;;;;;2.79;100.00;96225.22;1032636;28;20026;-61
2021/04/18 00:57:17;;;;;;;14.55;11.07;;;;;;;2.77;100.00;96221.91;1024023;29;20038;-63
2021/04/18 00:57:48;;;;;;;15.60;11.05;;;;;;;2.79;100.00;96229.66;1028149;28;20388;-62
2021/04/18 00:58:19;;;;;;;17.08;11.63;;;;;;;2.83;100.00;96229.28;1031916;28;20019;-62
2021/04/18 00:58:50;;;;;;;15.98;12.20;;;;;;;2.80;100.00;96226.91;1032038;28;20022;-62
2021/04/18 00:59:21;;;;;;;14.50;11.27;;;;;;;2.80;100.00;96226.06;1036145;28;20025;-62
2021/04/18 00:59:52;;;;;;;18.08;11.73;;;;;;;2.82;100.00;96227.63;1024100;29;20473;-61
2021/04/18 01:00:24;;;;;;;15.98;11.77;;;;;;;2.79;100.00;96225.22;1016075;29;20024;-62
2021/04/18 01:00:55;;;;;;;16.70;12.23;;;;;;;2.82;100.00;96222.38;1024111;29;20026;-63
2021/04/18 01:01:26;;;;;;;14.90;11.75;;;;;;;2.82;100.00;96225.00;1028018;28;20030;-62
2021/04/18 01:01:56;;;;;;;16.63;11.80;;;;;;;2.79;100.00;96227.03;1028009;28;20023;-63
2021/04/18 01:02:27;;;;;;;16.70;11.75;;;;;;;2.81;100.00;96228.56;1027945;28;20046;-62
2021/04/18 01:02:58;;;;;;;17.02;12.02;;;;;;;2.81;100.00;96222.50;1031999;28;20027;-62
2021/04/18 01:03:29;;;;;;;16.20;12.35;;;;;;;2.76;100.00;96219.41;1027895;28;20023;-59
2021/04/18 01:04:00;;;;;;;15.25;11.82;;;;;;;2.82;100.00;96226.75;1027929;28;20507;-62
2021/04/18 01:04:30;;;;;;;18.65;12.25;;;;;;;2.76;100.00;96224.63;1023986;28;20559;-61
2021/04/18 01:05:02;;;;;;;15.32;11.20;;;;;;;2.83;100.00;96221.41;1024031;28;20087;-62
2021/04/18 01:05:34;;;;;;;15.35;11.82;;;;;;;2.82;100.00;96225.00;1027962;28;20090;-62
2021/04/18 01:06:05;;;;;;;16.45;11.30;;;;;;;2.78;100.00;96218.31;1027987;28;20022;-62
2021/04/18 01:06:36;;;;;;;15.00;11.48;;;;;;;2.81;100.00;96220.69;1023783;28;20027;-62
2021/04/18 01:07:06;;;;;;;16.27;11.23;;;;;;;2.80;100.00;96221.66;1027945;28;20026;-62
2021/04/18 01:07:37;;;;;;;15.80;11.30;;;;;;;2.81;100.00;96219.88;1024088;28;20087;-62
2021/04/18 01:08:09;;;;;;;19.27;12.38;;;;;;;2.83;100.00;96218.78;1031970;28;20030;-62
2021/04/18 01:08:40;;;;;;;15.57;12.20;;;;;;;2.79;100.00;96225.22;1023907;29;20023;-62
2021/04/18 01:09:11;;;;;;;15.82;11.82;;;;;;;2.80;100.00;96221.66;1032082;28;20092;-62
2021/04/18 01:09:42;;;;;;;16.15;11.82;;;;;;;2.83;100.00;96218.78;1028036;28;20441;-62
2021/04/18 01:10:14;;;;;;;15.73;12.23;;;;;;;2.85;100.00;96217.84;1024074;28;20023;-62
2021/04/18 01:10:45;;;;;;;15.25;11.85;;;;;;;2.82;100.00;96222.38;1027844;28;20524;-62
2021/04/18 01:11:16;;;;;;;16.40;12.18;;;;;;;2.81;100.00;96219.88;1027931;28;20023;-62
2021/04/18 01:11:46;;;;;;;16.17;12.25;;;;;;;2.85;100.00;96221.28;1032000;28;20090;-62
2021/04/18 01:12:17;;;;;;;15.63;12.25;;;;;;;2.83;100.00;96224.03;1023957;29;20168;-62
2021/04/18 01:12:48;;;;;;;15.75;11.75;;;;;;;2.80;100.00;96229.53;1027842;28;20027;-63
2021/04/18 01:13:20;;;;;;;16.63;12.00;;;;;;;2.75;100.00;96223.81;1031871;28;20026;-62
2021/04/18 01:13:50;;;;;;;16.05;12.27;;;;;;;2.77;100.00;96215.78;1027818;28;20461;-62
2021/04/18 01:14:21;;;;;;;16.98;12.45;;;;;;;2.78;100.00;96220.94;1032005;28;20030;-61
2021/04/18 01:14:52;;;;;;;14.70;11.00;;;;;;;2.76;100.00;96217.59;1031771;28;20034;-62
2021/04/18 01:15:22;;;;;;;14.98;11.68;;;;;;;2.76;100.00;96220.22;1023981;29;20397;-61
2021/04/18 01:15:53;;;;;;;15.80;11.27;;;;;;;2.74;100.00;96219.50;1035996;28;20109;-63
2021/04/18 01:16:24;;;;;;;16.92;12.07;;;;;;;2.78;100.00;96218.31;1027891;28;20110;-61
2021/04/18 01:16:55;;;;;;;14.82;11.75;;;;;;;2.76;100.00;96220.22;1040032;28;20029;-62
2021/04/18 01:17:27;;;;;;;17.70;13.25;;;;;;;2.80;100.00;96215.56;1027956;28;20027;-62
2021/04/18 01:17:57;;;;;;;16.77;12.70;;;;;;;2.78;100.00;96213.06;1020081;29;20517;-62
2021/04/18 01:18:28;;;;;;;18.67;12.45;;;;;;;2.79;100.00;96214.75;1027978;28;20023;-62
2021/04/18 01:18:59;;;;;;;14.38;11.57;;;;;;;2.82;100.00;96213.66;1027843;28;20029;-62
2021/04/18 01:19:30;;;;;;;16.67;12.50;;;;;;;2.85;100.00;96207.34;1027938;28;20115;-62
2021/04/18 01:20:01;;;;;;;17.35;12.35;;;;;;;2.78;100.00;96215.69;1023971;29;20193;-62
2021/04/18 01:20:32;;;;;;;18.13;12.07;;;;;;;2.74;100.00;96211.66;1027950;28;20078;-61
2021/04/18 01:21:06;;;;;;;18.13;13.00;;;;;;;2.72;100.00;96213.56;1023877;28;20023;-62
2021/04/18 01:21:37;;;;;;;16.33;11.65;;;;;;;2.74;100.00;96209.03;1023938;29;20016;-62
2021/04/18 01:22:08;;;;;;;19.25;11.98;;;;;;;2.73;100.00;96209.13;1023995;29;20070;-62
2021/04/18 01:22:38;;;;;;;15.40;11.50;;;;;;;2.68;100.00;96212.13;1023938;29;20023;-62
2021/04/18 01:23:09;;;;;;;15.82;12.50;;;;;;;2.70;100.00;96215.47;1027858;28;20023;-61
2021/04/18 01:23:41;;;;;;;17.20;11.93;;;;;;;2.68;100.00;96216.53;1027775;28;20062;-61
2021/04/18 01:24:12;;;;;;;15.45;11.65;;;;;;;2.68;100.00;96211.28;1036032;28;20515;-61
2021/04/18 01:24:43;;;;;;;15.50;11.93;;;;;;;2.69;100.00;96213.78;1027973;28;20018;-61
2021/04/18 01:25:14;;;;;;;16.17;11.98;;;;;;;2.71;100.00;96218.91;1023986;29;20019;-63
2021/04/18 01:25:45;;;;;;;15.48;10.70;;;;;;;2.75;100.00;96212.47;1031920;28;20127;-62
2021/04/18 01:26:16;;;;;;;16.25;12.98;;;;;;;2.71;100.00;96211.06;1036035;28;20584;-60
2021/04/18 01:26:47;;;;;;;17.10;12.27;;;;;;;2.68;100.00;96217.34;1019839;29;20528;-62
2021/04/18 01:27:20;;;;;;;16.05;12.13;;;;;;;2.66;100.00;96219.28;1027817;28;20034;-60
2021/04/18 01:27:51;;;;;;;15.70;12.02;;;;;;;2.67;100.00;96214.88;1027921;28;20534;-62
2021/04/18 01:28:22;;;;;;;15.05;11.63;;;;;;;2.64;100.00;96210.69;1024007;29;20067;-61
2021/04/18 01:28:52;;;;;;;16.45;12.43;;;;;;;2.63;100.00;96217.75;1027935;28;20027;-61
2021/04/18 01:29:23;;;;;;;14.70;11.38;;;;;;;2.62;100.00;96212.63;1031875;28;20068;-62
2021/04/18 01:29:54;;;;;;;15.30;11.98;;;;;;;2.65;100.00;96209.75;1035975;28;20045;-62
2021/04/18 01:30:28;;;;;;;16.38;12.43;;;;;;;2.62;100.00;96216.06;1031942;28;20030;-62
2021/04/18 01:31:01;;;;;;;16.50;12.63;;;;;;;2.61;100.00;96213.56;1027892;28;20023;-62
2021/04/18 01:31:32;;;;;;;17.20;13.15;;;;;;;2.60;100.00;96214.53;1023872;29;20134;-62
2021/04/18 01:32:04;;;;;;;16.85;11.95;;;;;;;2.62;100.00;96213.44;1023911;29;20027;-61
2021/04/18 01:32:35;;;;;;;16.25;12.57;;;;;;;2.60;100.00;96212.72;1027910;28;20030;-61
2021/04/18 01:33:06;;;;;;;17.00;12.10;;;;;;;2.59;100.00;96213.66;1019995;29;20032;-61
2021/04/18 01:33:37;;;;;;;16.75;12.50;;;;;;;2.58;100.00;96213.81;1023611;29;20114;-60
2021/04/18 01:34:15;;;;;;;15.75;11.80;;;;;;;2.60;100.00;96209.28;1027935;28;20015;-61
2021/04/18 01:34:47;;;;;;;17.95;13.18;;;;;;;2.60;100.00;96211.91;1031783;28;20026;-62
2021/04/18 01:35:18;;;;;;;17.73;12.73;;;;;;;2.59;100.00;96204.97;1023917;29;20019;-63
2021/04/18 01:35:49;;;;;;;17.48;11.50;;;;;;;2.63;100.00;96209.88;1023820;29;20042;-61
2021/04/18 01:36:20;;;;;;;16.52;12.63;;;;;;;2.66;100.00;96211.41;1023894;28;20016;-61
2021/04/18 01:36:51;;;;;;;17.33;12.80;;;;;;;2.61;100.00;96210.94;1027930;28;20018;-62
2021/04/18 01:37:21;;;;;;;14.75;11.18;;;;;;;2.61;100.00;96211.78;1027883;28;20019;-61
2021/04/18 01:37:52;;;;;;;16.83;12.45;;;;;;;2.57;100.00;96217.38;1019970;28;20035;-61
2021/04/18 01:38:23;;;;;;;16.92;12.95;;;;;;;2.62;100.00;96212.63;1031880;28;20033;-61
2021/04/18 01:38:54;;;;;;;17.50;12.93;;;;;;;2.67;100.00;96207.84;1023941;29;20023;-61
2021/04/18 01:39:25;;;;;;;17.33;12.45;;;;;;;2.71;100.00;96211.06;1027881;28;20524;-61
2021/04/18 01:39:55;;;;;;;17.10;12.35;;;;;;;2.66;100.00;96214.03;1031853;28;20113;-62
2021/04/18 01:40:26;;;;;;;16.38;12.55;;;;;;;2.68;100.00;96212.13;1019854;29;20019;-61
2021/04/18 01:40:59;;;;;;;17.38;13.38;;;;;;;2.70;100.00;96207.59;1023955;29;20022;-61
2021/04/18 01:41:30;;;;;;;17.60;12.60;;;;;;;2.64;100.00;96206.28;1031825;28;20072;-62
2021/04/18 01:42:01;;;;;;;18.05;12.75;;;;;;;2.61;100.00;96208.31;1027803;28;20077;-62
2021/04/18 01:42:33;;;;;;;17.27;12.82;;;;;;;2.59;100.00;96218.09;1027736;28;20030;-62
2021/04/18 01:43:04;;;;;;;18.67;12.70;;;;;;;2.62;100.00;96213.44;1027880;28;20023;-62
2021/04/18 01:43:38;;;;;;;19.17;12.57;;;;;;;2.66;100.00;96210.59;1031701;28;20050;-61
2021/04/18 01:44:12;;;;;;;18.73;12.85;;;;;;;2.63;100.00;96214.28;1023774;29;20028;-62
2021/04/18 01:44:43;;;;;;;15.30;12.13;;;;;;;2.57;100.00;96209.50;1023889;29;20016;-62
2021/04/18 01:45:15;;;;;;;17.20;13.20;;;;;;;2.57;100.00;96206.88;1023865;29;20456;-62
2021/04/18 01:45:48;;;;;;;20.33;13.07;;;;;;;2.57;100.00;96206.88;1023835;29;20429;-62
2021/04/18 01:46:19;;;;;;;17.17;12.60;;;;;;;2.56;100.00;96199.97;1020574;28;20496;-62
2021/04/18 01:46:49;;;;;;;17.63;12.48;;;;;;;2.59;100.00;96208.44;1031743;28;20017;-62
2021/04/18 01:47:20;;;;;;;15.73;11.63;;;;;;;2.61;100.00;96203.91;1027877;28;20023;-63
2021/04/18 01:47:51;;;;;;;16.70;12.45;;;;;;;2.63;100.00;96203.81;1027847;28;20030;-62
2021/04/18 01:48:22;;;;;;;17.35;12.60;;;;;;;2.58;100.00;96203.34;1031824;28;20121;-62
2021/04/18 01:48:53;;;;;;;17.10;12.43;;;;;;;2.53;100.00;96208.09;1023853;29;20022;-62
2021/04/18 01:49:24;;;;;;;20.35;12.90;;;;;;;2.62;100.00;96202.94;1027867;28;20050;-62
2021/04/18 01:49:55;;;;;;;17.45;13.52;;;;;;;2.59;100.00;96205.81;1019915;29;20074;-62
2021/04/18 01:50:27;;;;;;;17.83;12.15;;;;;;;2.62;100.00;96202.13;1019899;29;20077;-62
2021/04/18 01:51:03;;;;;;;17.67;13.15;;;;;;;2.60;100.00;96209.28;1019809;29;20031;-62
2021/04/18 01:51:34;;;;;;;17.40;13.05;;;;;;;2.56;100.00;96205.22;1019964;29;20024;-62
2021/04/18 01:52:05;;;;;;;17.05;13.00;;;;;;;2.58;100.00;96208.56;1023779;29;20023;-61
2021/04/18 01:52:36;;;;;;;18.27;12.77;;;;;;;2.62;100.00;96207.38;1035851;28;20009;-62
2021/04/18 01:53:07;;;;;;;17.52;12.57;;;;;;;2.63;100.00;96203.81;1023883;29;20015;-62
2021/04/18 01:53:38;;;;;;;19.63;13.05;;;;;;;2.58;100.00;96204.16;1031618;28;20022;-62
2021/04/18 01:54:09;;;;;;;17.17;12.73;;;;;;;2.67;100.00;96209.63;1031839;28;20025;-62
2021/04/18 01:54:40;;;;;;;15.43;11.57;;;;;;;2.58;100.00;96204.16;1023718;29;20027;-63
2021/04/18 01:55:12;;;;;;;17.02;13.07;;;;;;;2.58;100.00;96201.53;1023785;29;20045;-61
2021/04/18 01:55:43;;;;;;;18.60;13.50;;;;;;;2.58;100.00;96203.34;1023860;29;20370;-62
2021/04/18 01:56:15;;;;;;;18.35;13.35;;;;;;;2.56;100.00;96200.81;1015914;29;20064;-62
2021/04/18 01:56:45;;;;;;;17.13;12.93;;;;;;;2.62;100.00;96202.13;1023650;29;20072;-62
2021/04/18 01:57:16;;;;;;;17.00;12.82;;;;;;;2.58;100.00;96208.56;1023749;29;20101;-62
2021/04/18 01:57:47;;;;;;;17.45;12.63;;;;;;;2.55;100.00;96203.56;1019828;29;20490;-62
2021/04/18 01:58:18;;;;;;;16.38;12.60;;;;;;;2.60;100.00;96204.88;1023743;29;20031;-62
2021/04/18 01:58:49;;;;;;;18.60;13.15;;;;;;;2.58;100.00;96208.56;1023683;29;20128;-62
2021/04/18 01:59:20;;;;;;;17.58;13.20;;;;;;;2.51;100.00;96209.97;1031820;28;20022;-63
2021/04/18 01:59:51;;;;;;;18.30;12.75;;;;;;;2.61;100.00;96208.31;1023850;29;20027;-63
2021/04/18 02:00:22;;;;;;;18.27;13.75;;;;;;;2.55;100.00;96207.00;1031847;28;20065;-61
2021/04/18 02:00:53;;;;;;;18.77;13.45;;;;;;;2.56;100.00;96202.59;1027724;28;20023;-62
2021/04/18 02:01:24;;;;;;;18.08;12.50;;;;;;;2.62;100.00;96207.38;1027865;28;20057;-62
2021/04/18 02:02:06;;;;;;;16.48;13.00;;;;;;;2.67;100.00;96205.22;1023831;29;20191;-60
2021/04/18 02:02:37;;;;;;;16.88;12.18;;;;;;;2.63;100.00;96204.63;1023681;29;20074;-62
2021/04/18 02:03:08;;;;;;;18.33;12.75;;;;;;;2.69;100.00;96213.78;1027857;28;20467;-62
2021/04/18 02:03:38;;;;;;;18.05;13.60;;;;;;;2.64;100.00;96205.44;1027630;28;20544;-62
2021/04/18 02:04:21;;;;;;;17.60;12.65;;;;;;;2.66;100.00;96200.09;1023887;29;20023;-62
2021/04/18 02:04:53;;;;;;;17.17;12.48;;;;;;;2.70;100.00;96212.84;1027736;28;20029;-62
2021/04/18 02:05:24;;;;;;;17.65;12.60;;;;;;;2.73;100.00;96207.34;1031374;28;20025;-61
2021/04/18 02:05:55;;;;;;;18.10;12.35;;;;;;;2.66;100.00;96202.72;1023282;29;20454;-62
2021/04/18 02:06:25;;;;;;;17.45;12.88;;;;;;;2.71;100.00;96209.25;1031725;28;20025;-62
2021/04/18 02:06:56;;;;;;;17.67;12.65;;;;;;;2.69;100.00;96203.31;1023687;28;20026;-62
2021/04/18 02:07:27;;;;;;;18.75;12.82;;;;;;;2.68;100.00;96211.28;1031780;28;20029;-62
2021/04/18 02:07:58;;;;;;;16.88;12.68;;;;;;;2.61;100.00;96203.06;1019862;29;20024;-62
2021/04/18 02:08:29;;;;;;;16.55;13.07;;;;;;;2.58;100.00;96211.19;1023840;29;20027;-62
2021/04/18 02:08:59;;;;;;;18.25;13.65;;;;;;;2.59;100.00;96208.44;1023731;28;20024;-62
2021/04/18 02:09:31;;;;;;;18.90;13.32;;;;;;;2.61;100.00;96206.53;1023772;29;20054;-61
2021/04/18 02:10:02;;;;;;;16.63;12.77;;;;;;;2.64;100.00;96222.00;1019792;29;20019;-62
2021/04/18 02:10:33;;;;;;;17.60;13.00;;;;;;;2.67;100.00;96215.72;1023788;29;20066;-62
2021/04/18 02:11:04;;;;;;;17.17;13.18;;;;;;;2.59;100.00;96207.59;1027727;28;20455;-62
2021/04/18 02:11:37;;;;;;;17.55;12.38;;;;;;;2.68;100.00;96206.03;1031719;28;20484;-62
2021/04/18 02:12:10;;;;;;;17.23;12.88;;;;;;;2.72;100.00;96207.50;1023788;29;20098;-62
2021/04/18 02:12:42;;;;;;;17.02;12.70;;;;;;;2.73;100.00;96212.59;1027644;28;20109;-62
2021/04/18 02:13:13;;;;;;;20.42;12.82;;;;;;;2.77;100.00;96206.16;1031684;28;20029;-61
2021/04/18 02:13:44;;;;;;;17.42;12.52;;;;;;;2.82;100.00;96211.03;1023615;29;20019;-62
2021/04/18 02:14:15;;;;;;;18.00;12.77;;;;;;;2.86;100.00;96209.84;1023731;29;20461;-62
2021/04/18 02:14:45;;;;;;;17.05;12.40;;;;;;;2.87;100.00;96210.66;1023660;29;20023;-61
2021/04/18 02:15:16;;;;;;;17.40;12.52;;;;;;;2.87;100.00;96208.06;1023558;29;20047;-62
2021/04/18 02:15:47;;;;;;;18.40;13.73;;;;;;;2.79;100.00;96212.13;1023782;29;20075;-62
2021/04/18 02:16:18;;;;;;;18.17;12.88;;;;;;;2.71;100.00;96211.06;1027781;28;20098;-62
2021/04/18 02:16:49;;;;;;;18.90;14.20;;;;;;;2.77;100.00;96210.56;1023629;29;20151;-62
2021/04/18 02:17:20;;;;;;;20.10;13.63;;;;;;;2.78;100.00;96213.06;1023631;29;20035;-61
2021/04/18 02:17:50;;;;;;;19.40;13.02;;;;;;;2.75;100.00;96208.09;1023723;29;20401;-62
2021/04/18 02:18:21;;;;;;;17.65;13.25;;;;;;;2.69;100.00;96211.16;1027780;28;20038;-62
2021/04/18 02:18:52;;;;;;;17.20;12.82;;;;;;;2.63;100.00;96206.44;1023842;29;20481;-62
2021/04/18 02:19:23;;;;;;;16.42;12.30;;;;;;;2.67;100.00;96214.88;1019727;29;20127;-62
2021/04/18 02:19:54;;;;;;;19.05;13.90;;;;;;;2.67;100.00;96218.31;1023753;29;20505;-62
2021/04/18 02:20:25;;;;;;;19.15;13.05;;;;;;;2.74;100.00;96213.44;1023744;29;20098;-62
2021/04/18 02:20:56;;;;;;;17.48;13.25;;;;;;;2.75;100.00;96208.09;1027686;28;20559;-62
2021/04/18 02:21:27;;;;;;;19.00;13.73;;;;;;;2.66;100.00;96214.03;1031695;28;20029;-62
2021/04/18 02:21:58;;;;;;;19.38;13.40;;;;;;;2.63;100.00;96217.75;1027781;28;20599;-61
2021/04/18 02:22:28;;;;;;;18.95;13.82;;;;;;;2.67;100.00;96209.63;1023756;29;20087;-62
2021/04/18 02:22:59;;;;;;;22.00;13.70;;;;;;;2.66;100.00;96214.03;1019705;29;20023;-62
2021/04/18 02:23:31;;;;;;;20.00;13.68;;;;;;;2.64;100.00;96215.94;1023541;29;20481;-61